Etusivu
METAR-TAF:

METAR-TAF

Lentoasemat :

Djanet, Algeria

Leveyspiiri: 24-33N, Pituuspiiri: 009-28E, korkeus merenpinnasta: 1054 m

Tämänhetkinen sää

Tämä raportti tehtiin 26 minuuttia sitten, kello 10.00 UTC
Tuuli 5 kn pohjoisen/luoteesta
Lämpötila 17°C
Kosteus 19%
Ilmanpaine 1028 hPa
Näkyvyys 10 km tai enemmän
Hajonneita pilviä 4600 ft:n korkeudessa
Hajanaisia pilviä 10000 ft:n korkeudessa

METAR: DAAJ 231000Z 34005KT 9999 BKN046 SCT100 17/M07 Q1028

Aika: 11:26 (10:26 UTC)

Sääennuste

Tämä raportti tehtiin 5 tuntia ja 26 minuuttia sitten, kello 05.00 UTC
Ennuste voimassa 23. päivästä klo 06 UTC - 24. päivään klo 06 UTC
Tuuli 2 kn eri suunnista
Näkyvyys 10 km tai enemmän
ei pilviä alle 1500 m:ssä eikä cumulonimbus-pilviä

TAF: DAAJ 230500Z 2306/2406 VRB02KT CAVOK

Säähavainnot ja -ennusteet yli 4000 lentoasemalta (METAR- ja TAF-raportit).

Käytössä olevat sääasemat on merkitty karttaan keltaisilla ja punaisilla pisteillä.

Aseta hiiri pisteen päälle nähdäksesi sääaseman nimen.

Klikkaa sitten nähdäksesi säähavainnot ja -ennusteet.

Kartan vaihtaminen: klikkaa mustalla rastilla varustettuja vihreitä pisteitä, niin voit zoomata sisään; viivalla varustettua vihreää pistettä, niin voit zoomata ulos tai vihreitä nuolia, niin pääset viereisille kartoille.


METAR-TAF: